createdAt,value
2018-10-05T00:00:41.361Z,4.50
2018-10-05T00:03:09.461Z,4.77
2018-10-05T00:05:37.541Z,4.60
2018-10-05T00:08:05.867Z,4.37
2018-10-05T00:10:33.946Z,4.77
2018-10-05T00:13:02.007Z,4.53
2018-10-05T00:15:30.129Z,4.40
2018-10-05T00:17:58.194Z,4.30
2018-10-05T00:20:26.294Z,5.00
2018-10-05T00:22:54.514Z,4.20
2018-10-05T00:25:22.585Z,4.50
2018-10-05T00:27:50.647Z,4.17
2018-10-05T00:30:18.963Z,5.07
2018-10-05T00:32:47.038Z,5.07
2018-10-05T00:35:15.106Z,4.47
2018-10-05T00:37:43.167Z,4.60
2018-10-05T00:40:11.240Z,4.53
2018-10-05T00:42:39.359Z,5.10
2018-10-05T00:45:07.386Z,5.17
2018-10-05T00:47:35.453Z,4.60
2018-10-05T00:50:03.679Z,4.93
2018-10-05T00:52:31.741Z,4.50
2018-10-05T00:54:59.831Z,4.97
2018-10-05T00:57:27.907Z,4.77
2018-10-05T00:59:55.967Z,4.80
2018-10-05T01:02:24.062Z,5.10
2018-10-05T01:04:52.122Z,4.93
2018-10-05T01:07:20.216Z,5.10
2018-10-05T01:09:48.297Z,5.03
2018-10-05T01:12:17.120Z,5.57
2018-10-05T01:14:45.230Z,5.13
2018-10-05T01:17:13.314Z,5.27
2018-10-05T01:19:41.386Z,5.23
2018-10-05T01:22:09.467Z,4.60
2018-10-05T01:24:37.569Z,4.47
2018-10-05T01:27:05.654Z,4.53
2018-10-05T01:29:33.731Z,4.73
2018-10-05T01:32:01.814Z,4.83
2018-10-05T01:34:29.911Z,4.57
2018-10-05T01:36:58.006Z,4.90
2018-10-05T01:39:26.103Z,4.70
2018-10-05T01:41:54.206Z,4.73
2018-10-05T01:44:22.290Z,4.83
2018-10-05T01:46:50.368Z,5.20
2018-10-05T01:49:18.450Z,5.23
2018-10-05T01:51:46.512Z,4.87
2018-10-05T01:54:14.591Z,4.97
2018-10-05T01:56:42.661Z,5.40
2018-10-05T01:59:10.743Z,5.30
2018-10-05T02:01:38.814Z,5.57
2018-10-05T02:04:06.934Z,5.23
2018-10-05T02:06:35.086Z,4.70
2018-10-05T02:09:03.586Z,4.87
2018-10-05T02:11:31.644Z,5.70
2018-10-05T02:13:59.729Z,5.00
2018-10-05T02:16:27.791Z,4.90
2018-10-05T02:18:55.860Z,5.60
2018-10-05T02:21:23.919Z,5.23
2018-10-05T02:23:51.985Z,4.70
2018-10-05T02:26:20.040Z,5.40
2018-10-05T02:28:48.114Z,6.47
2018-10-05T02:31:16.174Z,5.53
2018-10-05T02:33:44.315Z,5.87
2018-10-05T02:36:12.376Z,5.90
2018-10-05T02:38:40.433Z,5.73
2018-10-05T02:41:08.504Z,5.60
2018-10-05T02:43:36.558Z,5.23
2018-10-05T02:46:04.626Z,5.77
2018-10-05T02:48:32.687Z,6.70
2018-10-05T02:51:00.761Z,6.67
2018-10-05T02:53:28.817Z,6.20
2018-10-05T02:55:56.949Z,6.83
2018-10-05T02:58:25.002Z,6.70
2018-10-05T03:01:04.582Z,6.77
2018-10-05T03:03:32.636Z,6.43
2018-10-05T03:06:00.728Z,10.47
2018-10-05T03:08:28.891Z,12.10
2018-10-05T03:10:57.070Z,14.50
2018-10-05T03:13:25.142Z,15.47
2018-10-05T03:15:53.218Z,17.47
2018-10-05T03:18:21.285Z,17.83
2018-10-05T03:20:49.361Z,15.50
2018-10-05T03:23:17.424Z,16.27
2018-10-05T03:25:45.653Z,17.43
2018-10-05T03:28:13.564Z,17.37
2018-10-05T03:30:41.637Z,17.97
2018-10-05T03:33:09.708Z,18.57
2018-10-05T03:35:37.778Z,17.43
2018-10-05T03:38:06.128Z,16.90
2018-10-05T03:40:34.248Z,16.70
2018-10-05T03:43:02.311Z,19.53
2018-10-05T03:45:30.392Z,21.10
2018-10-05T03:47:58.455Z,16.47
2018-10-05T03:50:26.525Z,17.20
2018-10-05T03:52:54.589Z,16.37
2018-10-05T03:55:22.653Z,16.47
2018-10-05T03:57:50.752Z,16.87
2018-10-05T04:00:18.779Z,17.60
2018-10-05T04:02:46.901Z,17.50
2018-10-05T04:05:14.983Z,17.00
2018-10-05T04:07:43.154Z,19.27
2018-10-05T04:10:11.226Z,18.57
2018-10-05T04:12:39.305Z,17.80
2018-10-05T04:15:07.627Z,15.17
2018-10-05T04:17:35.713Z,16.97
2018-10-05T04:20:03.801Z,18.50
2018-10-05T04:22:31.909Z,18.23
2018-10-05T04:25:00.019Z,19.13
2018-10-05T04:27:28.106Z,17.50
2018-10-05T04:29:56.770Z,18.30
2018-10-05T04:32:25.060Z,16.80
2018-10-05T04:34:53.133Z,18.70
2018-10-05T04:37:21.235Z,13.80
2018-10-05T04:39:49.319Z,20.57
2018-10-05T04:42:17.395Z,19.00
2018-10-05T04:44:45.477Z,18.40
2018-10-05T04:47:13.753Z,22.77
2018-10-05T04:49:41.848Z,21.67
2018-10-05T04:52:10.058Z,18.10
2018-10-05T04:54:38.137Z,21.20
2018-10-05T04:57:06.258Z,22.03
2018-10-05T04:59:34.367Z,27.50
2018-10-05T05:02:02.465Z,23.30
2018-10-05T05:04:30.593Z,20.00
2018-10-05T05:06:58.682Z,20.43
2018-10-05T05:09:26.772Z,17.37
2018-10-05T05:11:54.870Z,19.17
2018-10-05T05:14:22.950Z,16.37
2018-10-05T05:16:51.022Z,16.60
2018-10-05T05:19:19.209Z,17.17
2018-10-05T05:21:47.293Z,13.20
2018-10-05T05:24:15.379Z,14.87
2018-10-05T05:26:43.494Z,16.57
2018-10-05T05:29:11.582Z,15.03
2018-10-05T05:31:39.654Z,17.07
2018-10-05T05:34:07.860Z,19.43
2018-10-05T05:36:35.930Z,16.27
2018-10-05T05:39:04.752Z,16.33
2018-10-05T05:41:32.835Z,18.23
2018-10-05T05:44:00.906Z,17.50
2018-10-05T05:46:29.029Z,18.63
2018-10-05T05:48:57.098Z,17.50
2018-10-05T05:51:25.281Z,19.33
2018-10-05T05:53:53.375Z,18.63
2018-10-05T05:56:21.454Z,19.77
2018-10-05T05:58:49.531Z,20.20
2018-10-05T06:01:17.740Z,17.17
2018-10-05T06:03:45.817Z,18.60
2018-10-05T06:06:13.911Z,19.47
2018-10-05T06:08:41.987Z,19.97
2018-10-05T06:11:10.080Z,19.97
2018-10-05T06:13:38.153Z,18.10
2018-10-05T06:16:06.329Z,21.33
2018-10-05T06:18:34.320Z,20.00
2018-10-05T06:21:02.413Z,17.17
2018-10-05T06:23:30.520Z,19.07
2018-10-05T06:25:58.607Z,18.13
2018-10-05T06:28:26.755Z,16.80
2018-10-05T06:30:54.925Z,17.77
2018-10-05T06:33:23.200Z,18.73
2018-10-05T06:35:51.218Z,16.77
2018-10-05T06:38:19.324Z,17.53
2018-10-05T06:40:47.410Z,16.77
2018-10-05T06:43:15.527Z,18.80
2018-10-05T06:45:43.612Z,15.47
2018-10-05T06:48:11.719Z,14.13
2018-10-05T06:50:39.824Z,14.17
2018-10-05T06:53:07.938Z,14.93
2018-10-05T06:55:36.021Z,17.23
2018-10-05T06:58:04.120Z,13.83
2018-10-05T07:00:32.208Z,16.17
2018-10-05T07:03:00.311Z,17.00
2018-10-05T07:05:28.411Z,16.00
2018-10-05T07:07:56.526Z,16.90
2018-10-05T07:10:24.606Z,15.63
2018-10-05T07:12:52.711Z,16.80
2018-10-05T07:15:20.796Z,15.57
2018-10-05T07:17:48.916Z,16.63
2018-10-05T07:20:17.016Z,14.73
2018-10-05T07:22:45.234Z,17.27
2018-10-05T07:25:13.334Z,16.63
2018-10-05T07:27:41.410Z,15.17
2018-10-05T07:30:09.643Z,14.17
2018-10-05T07:32:37.726Z,16.40
2018-10-05T07:35:05.823Z,14.20
2018-10-05T07:37:33.913Z,14.30
2018-10-05T07:40:02.061Z,15.13
2018-10-05T07:42:30.196Z,16.43
2018-10-05T07:44:58.383Z,17.23
2018-10-05T07:47:26.468Z,14.53
2018-10-05T07:49:54.567Z,13.27
2018-10-05T07:52:22.661Z,14.33
2018-10-05T07:54:50.760Z,13.03
2018-10-05T07:57:18.856Z,13.73
2018-10-05T07:59:46.943Z,13.83
2018-10-05T08:02:15.027Z,12.43
2018-10-05T08:04:43.129Z,15.00
2018-10-05T08:07:11.289Z,15.17
2018-10-05T08:09:39.402Z,13.97
2018-10-05T08:12:07.405Z,13.93
2018-10-05T08:14:35.483Z,14.20
2018-10-05T08:17:03.550Z,13.63
2018-10-05T08:19:31.631Z,11.83
2018-10-05T08:21:59.705Z,11.57
2018-10-05T08:24:27.784Z,13.13
2018-10-05T08:26:56.307Z,13.80
2018-10-05T08:29:24.403Z,10.43
2018-10-05T08:31:52.415Z,12.53
2018-10-05T08:34:20.490Z,12.23
2018-10-05T08:36:48.567Z,10.70
2018-10-05T08:39:16.670Z,8.50
2018-10-05T08:41:44.762Z,11.27
2018-10-05T08:44:12.835Z,10.83
2018-10-05T08:46:40.917Z,10.67
2018-10-05T08:49:08.989Z,8.60
2018-10-05T08:51:37.128Z,10.50
2018-10-05T08:54:05.160Z,10.33
2018-10-05T08:56:33.237Z,5.20
2018-10-05T08:59:01.310Z,9.53
2018-10-05T09:01:29.380Z,10.27
2018-10-05T09:03:57.452Z,10.80
2018-10-05T09:06:25.533Z,9.40
2018-10-05T09:08:53.678Z,9.47
2018-10-05T09:11:21.791Z,10.17
2018-10-05T09:13:49.836Z,10.43
2018-10-05T09:16:17.910Z,8.73
2018-10-05T09:18:45.983Z,8.87
2018-10-05T09:21:14.058Z,5.43
2018-10-05T09:23:42.123Z,9.10
2018-10-05T09:26:10.202Z,7.30
2018-10-05T09:28:38.476Z,9.40
2018-10-05T09:31:06.570Z,7.57
2018-10-05T09:33:34.639Z,7.80
2018-10-05T09:36:02.703Z,7.57
2018-10-05T09:38:30.777Z,9.33
2018-10-05T09:40:58.845Z,9.60
2018-10-05T09:43:27.124Z,8.97
2018-10-05T09:45:55.187Z,8.53
2018-10-05T09:48:23.270Z,8.53
2018-10-05T09:50:51.341Z,8.87
2018-10-05T09:53:19.422Z,7.63
2018-10-05T09:55:47.483Z,7.50
2018-10-05T09:58:15.583Z,7.33
2018-10-05T10:00:48.979Z,8.73
2018-10-05T10:03:22.405Z,8.60
2018-10-05T10:05:50.461Z,7.87
2018-10-05T10:08:18.566Z,8.17
2018-10-05T10:10:46.602Z,8.27
2018-10-05T10:13:14.687Z,7.73
2018-10-05T10:15:42.748Z,8.93
2018-10-05T10:18:10.828Z,8.23
2018-10-05T10:20:38.890Z,8.40
2018-10-05T10:23:06.976Z,8.70
2018-10-05T10:25:35.055Z,7.90
2018-10-05T10:28:03.145Z,7.43
2018-10-05T10:30:31.191Z,7.53
2018-10-05T10:32:59.258Z,7.07
2018-10-05T10:35:27.346Z,8.17
2018-10-05T10:37:55.504Z,8.40
2018-10-05T10:40:23.583Z,7.80
2018-10-05T10:42:51.694Z,6.70
2018-10-05T10:45:19.765Z,7.50
2018-10-05T10:47:47.854Z,7.10
2018-10-05T10:50:15.958Z,7.23
2018-10-05T10:52:44.032Z,7.67
2018-10-05T10:55:12.170Z,7.13
2018-10-05T10:57:40.186Z,6.57
2018-10-05T11:00:08.262Z,6.73
2018-10-05T11:02:36.328Z,7.13
2018-10-05T11:05:04.567Z,6.97
2018-10-05T11:07:32.510Z,6.70
2018-10-05T11:10:00.591Z,7.20
2018-10-05T11:12:28.655Z,7.07
2018-10-05T11:14:56.726Z,6.13
2018-10-05T11:17:24.796Z,6.47
2018-10-05T11:19:52.875Z,8.30
2018-10-05T11:22:20.941Z,7.23
2018-10-05T11:24:49.018Z,6.77
2018-10-05T11:27:17.085Z,7.80
2018-10-05T11:29:45.195Z,7.17
2018-10-05T11:32:13.238Z,11.37
2018-10-05T11:34:41.341Z,8.33
2018-10-05T11:37:09.382Z,6.60
2018-10-05T11:39:37.451Z,7.37
2018-10-05T11:42:05.588Z,6.93
2018-10-05T11:44:33.653Z,6.83
2018-10-05T11:47:01.740Z,8.27
2018-10-05T11:49:29.818Z,6.40
2018-10-05T11:51:57.911Z,5.80
2018-10-05T11:54:26.029Z,6.57
2018-10-05T11:56:54.065Z,5.40
2018-10-05T11:59:22.133Z,5.90
2018-10-05T12:01:50.313Z,5.27
2018-10-05T12:04:18.383Z,6.20
2018-10-05T12:06:46.466Z,6.53
2018-10-05T12:09:14.535Z,5.57
2018-10-05T12:11:42.609Z,5.03
2018-10-05T12:14:10.679Z,5.40
2018-10-05T12:16:38.763Z,5.10
2018-10-05T12:19:06.831Z,5.23
2018-10-05T12:21:34.910Z,5.20
2018-10-05T12:24:02.999Z,5.10
2018-10-05T12:26:31.140Z,5.00
2018-10-05T12:28:59.310Z,4.80
2018-10-05T12:31:27.399Z,5.50
2018-10-05T12:33:55.484Z,4.53
2018-10-05T12:36:23.551Z,4.87
2018-10-05T12:38:51.634Z,4.90
2018-10-05T12:41:19.696Z,4.87
2018-10-05T12:43:47.771Z,4.50
2018-10-05T12:46:15.846Z,4.60
2018-10-05T12:48:43.922Z,4.73
2018-10-05T12:51:11.992Z,4.50
2018-10-05T12:53:40.068Z,4.37
2018-10-05T12:56:08.135Z,4.77
2018-10-05T12:58:36.213Z,4.73
2018-10-05T13:01:04.284Z,4.20
2018-10-05T13:03:32.367Z,4.23
2018-10-05T13:06:00.443Z,4.40
2018-10-05T13:08:28.516Z,4.60
2018-10-05T13:10:56.583Z,5.13
2018-10-05T13:13:24.664Z,4.63
2018-10-05T13:15:52.736Z,4.60
2018-10-05T13:18:20.820Z,4.80
2018-10-05T13:20:48.888Z,4.93
2018-10-05T13:23:16.969Z,4.00
2018-10-05T13:25:45.037Z,4.80
2018-10-05T13:28:13.126Z,4.40
2018-10-05T13:30:41.187Z,4.23
2018-10-05T13:33:09.371Z,4.30
2018-10-05T13:35:37.434Z,4.40
2018-10-05T13:38:05.674Z,4.33
2018-10-05T13:40:33.749Z,3.70
2018-10-05T13:43:01.815Z,3.90
2018-10-05T13:45:29.900Z,4.57
2018-10-05T13:47:57.968Z,3.87
2018-10-05T13:50:26.042Z,4.20
2018-10-05T13:52:54.141Z,4.00
2018-10-05T13:55:22.229Z,4.00
2018-10-05T13:57:50.297Z,3.70
2018-10-05T14:00:18.375Z,4.13
2018-10-05T14:02:46.452Z,3.70
2018-10-05T14:05:14.781Z,3.50
2018-10-05T14:07:42.817Z,3.53
2018-10-05T14:10:10.899Z,3.90
2018-10-05T14:12:39.200Z,3.43
2018-10-05T14:15:07.425Z,3.10
2018-10-05T14:17:35.445Z,3.50
2018-10-05T14:20:03.539Z,3.63
2018-10-05T14:22:31.619Z,3.20
2018-10-05T14:24:59.694Z,3.10
2018-10-05T14:27:27.765Z,3.27
2018-10-05T14:29:55.839Z,3.20
2018-10-05T14:32:23.900Z,2.80
2018-10-05T14:34:51.988Z,3.27
2018-10-05T14:37:20.060Z,3.60
2018-10-05T14:39:48.174Z,3.67
2018-10-05T14:42:16.260Z,3.60
2018-10-05T14:44:44.383Z,3.73
2018-10-05T14:47:12.469Z,4.53
2018-10-05T14:49:40.594Z,4.47
2018-10-05T14:52:08.653Z,4.30
2018-10-05T14:54:36.724Z,4.27
2018-10-05T14:57:04.869Z,4.03
2018-10-05T14:59:32.918Z,3.10
2018-10-05T15:02:01.000Z,2.83
2018-10-05T15:04:29.066Z,3.17
2018-10-05T15:06:57.182Z,3.07
2018-10-05T15:09:25.213Z,3.90
2018-10-05T15:11:53.504Z,3.40
2018-10-05T15:14:21.575Z,3.27
2018-10-05T15:16:49.649Z,3.33
2018-10-05T15:19:17.732Z,3.20
2018-10-05T15:21:45.800Z,3.07
2018-10-05T15:24:14.356Z,3.60
2018-10-05T15:26:42.445Z,2.80
2018-10-05T15:29:10.501Z,3.10
2018-10-05T15:31:38.615Z,2.87
2018-10-05T15:34:06.807Z,3.30
2018-10-05T15:36:34.886Z,3.10
2018-10-05T15:39:02.966Z,3.10
2018-10-05T15:41:31.029Z,2.90
2018-10-05T15:43:59.106Z,3.07
2018-10-05T15:46:59.282Z,3.10
2018-10-05T15:49:27.865Z,18.40
2018-10-05T15:51:55.947Z,4.13
2018-10-05T15:54:24.011Z,6.17
2018-10-05T15:56:52.334Z,3.50
2018-10-05T15:59:20.521Z,3.20
2018-10-05T16:01:48.582Z,3.30
2018-10-05T16:04:16.973Z,3.10
2018-10-05T16:06:45.239Z,4.60
2018-10-05T16:09:13.336Z,4.47
2018-10-05T16:11:41.398Z,7.37
2018-10-05T16:14:09.479Z,7.37
2018-10-05T16:16:37.573Z,4.40
2018-10-05T16:19:06.437Z,70.80
2018-10-05T16:21:35.418Z,95.03
2018-10-05T16:24:05.855Z,5.37
2018-10-05T16:26:33.926Z,3.87
2018-10-05T16:29:02.035Z,3.27
2018-10-05T16:31:30.138Z,3.20
2018-10-05T16:33:58.213Z,3.50
2018-10-05T16:36:26.354Z,3.83
2018-10-05T16:38:54.434Z,3.03
2018-10-05T16:41:22.767Z,3.20
2018-10-05T16:43:50.922Z,3.20
2018-10-05T16:46:18.919Z,3.53
2018-10-05T16:48:46.994Z,9.23
2018-10-05T16:51:15.090Z,7.40
2018-10-05T16:53:43.162Z,4.30
2018-10-05T16:56:11.237Z,3.97
2018-10-05T16:58:39.315Z,3.83
2018-10-05T17:01:07.412Z,3.70
2018-10-05T17:03:35.478Z,3.87
2018-10-05T17:06:03.553Z,4.60
2018-10-05T17:08:33.713Z,4.63
2018-10-05T17:11:01.968Z,4.47
2018-10-05T17:13:29.863Z,4.30
2018-10-05T17:15:57.927Z,4.20
2018-10-05T17:18:25.997Z,4.17
2018-10-05T17:20:54.066Z,4.70
2018-10-05T17:23:22.153Z,4.20
2018-10-05T17:25:50.217Z,5.13
2018-10-05T17:28:18.296Z,5.40
2018-10-05T17:30:46.372Z,6.10
2018-10-05T17:33:14.436Z,5.20
2018-10-05T17:35:42.652Z,5.40
2018-10-05T17:38:10.582Z,4.90
2018-10-05T17:40:38.664Z,4.80
2018-10-05T17:43:06.742Z,4.70
2018-10-05T17:45:34.823Z,4.90
2018-10-05T17:48:02.892Z,4.63
2018-10-05T17:50:30.970Z,4.93
2018-10-05T17:52:59.038Z,4.80
2018-10-05T17:55:27.211Z,4.80
2018-10-05T17:57:55.239Z,5.10
2018-10-05T18:00:23.327Z,5.50
2018-10-05T18:02:51.403Z,5.00
2018-10-05T18:05:19.502Z,5.30
2018-10-05T18:07:47.573Z,5.33
2018-10-05T18:10:15.661Z,5.80
2018-10-05T18:12:43.742Z,6.17
2018-10-05T18:15:11.830Z,6.33
2018-10-05T18:17:40.736Z,5.37
2018-10-05T18:20:08.959Z,5.53
2018-10-05T18:22:36.995Z,5.93
2018-10-05T18:25:05.235Z,5.30
2018-10-05T18:27:33.343Z,6.23
2018-10-05T18:30:01.434Z,7.67
2018-10-05T18:32:29.559Z,6.30
2018-10-05T18:34:57.654Z,6.90
2018-10-05T18:37:25.762Z,6.20
2018-10-05T18:39:53.862Z,17.23
2018-10-05T18:42:21.949Z,20.23
2018-10-05T18:44:50.055Z,50.77
2018-10-05T18:47:18.143Z,8.13
2018-10-05T18:49:46.222Z,8.23
2018-10-05T18:52:14.296Z,6.23
2018-10-05T18:54:42.389Z,5.57
2018-10-05T18:57:13.707Z,6.87
2018-10-05T18:59:42.103Z,6.67
2018-10-05T19:02:10.196Z,7.20
2018-10-05T19:04:38.279Z,6.97
2018-10-05T19:07:06.515Z,7.97
2018-10-05T19:09:34.513Z,7.30
2018-10-05T19:12:02.632Z,6.40
2018-10-05T19:14:30.705Z,5.90
2018-10-05T19:16:58.798Z,8.73
2018-10-05T19:19:26.875Z,7.17
2018-10-05T19:21:54.961Z,6.43
2018-10-05T19:24:23.048Z,6.53
2018-10-05T19:26:51.263Z,9.13
2018-10-05T19:29:19.322Z,7.83
2018-10-05T19:31:47.519Z,7.80
2018-10-05T19:34:15.636Z,7.10
2018-10-05T19:36:43.750Z,6.93
2018-10-05T19:39:12.368Z,7.00
2018-10-05T19:41:41.070Z,6.77
2018-10-05T19:44:09.649Z,7.50
2018-10-05T19:46:38.031Z,7.93
2018-10-05T19:49:06.119Z,7.70
2018-10-05T19:51:34.206Z,6.77
2018-10-05T19:54:02.286Z,7.83
2018-10-05T19:56:30.377Z,6.63
2018-10-05T19:58:58.481Z,7.40
2018-10-05T20:01:26.539Z,6.23
2018-10-05T20:03:54.614Z,7.17
2018-10-05T20:06:23.087Z,7.47
2018-10-05T20:08:51.152Z,7.90
2018-10-05T20:11:19.227Z,7.40
2018-10-05T20:13:47.296Z,7.40
2018-10-05T20:16:15.536Z,7.40
2018-10-05T20:18:43.565Z,6.63
2018-10-05T20:21:11.688Z,8.47
2018-10-05T20:23:40.025Z,9.40
2018-10-05T20:26:08.154Z,7.27
2018-10-05T20:28:36.231Z,7.67
2018-10-05T20:31:04.559Z,7.70
2018-10-05T20:33:32.658Z,8.00
2018-10-05T20:36:00.810Z,7.87
2018-10-05T20:38:28.842Z,7.73
2018-10-05T20:40:56.939Z,7.37
2018-10-05T20:43:25.012Z,8.10
2018-10-05T20:45:53.084Z,7.50
2018-10-05T20:48:21.156Z,7.93
2018-10-05T20:50:49.218Z,8.17
2018-10-05T20:53:17.298Z,7.43
2018-10-05T20:55:45.382Z,7.67
2018-10-05T20:58:13.483Z,9.47
2018-10-05T21:00:41.551Z,10.90
2018-10-05T21:03:09.634Z,9.53
2018-10-05T21:05:37.713Z,14.23
2018-10-05T21:08:06.105Z,14.27
2018-10-05T21:10:34.165Z,10.87
2018-10-05T21:13:02.760Z,8.03
2018-10-05T21:15:30.849Z,7.50
2018-10-05T21:17:58.978Z,8.27
2018-10-05T21:20:26.998Z,7.63
2018-10-05T21:22:55.070Z,12.27
2018-10-05T21:25:23.137Z,8.70
2018-10-05T21:27:51.220Z,9.10
2018-10-05T21:30:19.281Z,8.73
2018-10-05T21:32:47.432Z,9.03
2018-10-05T21:35:15.415Z,9.00
2018-10-05T21:37:43.500Z,8.43
2018-10-05T21:40:11.566Z,8.60
2018-10-05T21:42:39.648Z,8.87
2018-10-05T21:45:07.829Z,9.67
2018-10-05T21:47:35.815Z,13.83
2018-10-05T21:50:03.917Z,10.90
2018-10-05T21:52:32.048Z,11.47
2018-10-05T21:55:00.291Z,12.50
2018-10-05T21:57:28.352Z,12.63
2018-10-05T21:59:56.428Z,9.43
2018-10-05T22:02:28.045Z,9.00
2018-10-05T22:04:56.128Z,8.63
2018-10-05T22:07:24.205Z,8.40
2018-10-05T22:09:52.283Z,7.80
2018-10-05T22:12:20.352Z,8.40
2018-10-05T22:14:48.435Z,9.73
2018-10-05T22:17:16.511Z,8.97
2018-10-05T22:19:44.619Z,8.70
2018-10-05T22:22:12.671Z,8.63
2018-10-05T22:24:40.773Z,8.63
2018-10-05T22:27:09.444Z,8.40
2018-10-05T22:29:37.789Z,8.37
2018-10-05T22:32:06.146Z,8.07
2018-10-05T22:34:34.229Z,8.17
2018-10-05T22:37:02.390Z,7.80
2018-10-05T22:39:30.477Z,40.20
2018-10-05T22:41:59.053Z,12.67
2018-10-05T22:44:27.131Z,9.63
2018-10-05T22:46:55.400Z,9.90
2018-10-05T22:49:23.484Z,11.67
2018-10-05T22:51:51.557Z,11.33
2018-10-05T22:54:19.635Z,14.10
2018-10-05T22:56:47.709Z,17.37
2018-10-05T22:59:15.815Z,11.73
2018-10-05T23:01:43.891Z,11.67
2018-10-05T23:04:12.056Z,11.03
2018-10-05T23:06:40.143Z,13.67
2018-10-05T23:09:08.677Z,8.23
2018-10-05T23:11:37.156Z,11.23
2018-10-05T23:14:05.337Z,13.63
2018-10-05T23:16:33.516Z,13.87
2018-10-05T23:19:01.654Z,13.93
2018-10-05T23:21:29.735Z,13.17
2018-10-05T23:23:57.801Z,16.10
2018-10-05T23:26:25.872Z,18.93
2018-10-05T23:28:53.947Z,16.30
2018-10-05T23:31:22.120Z,10.07
2018-10-05T23:33:50.182Z,9.93
2018-10-05T23:36:18.258Z,9.27
2018-10-05T23:38:46.327Z,9.43
2018-10-05T23:41:14.420Z,8.90
2018-10-05T23:43:42.492Z,9.27
2018-10-05T23:46:10.569Z,9.50
2018-10-05T23:48:38.639Z,9.67
2018-10-05T23:51:06.727Z,9.57
2018-10-05T23:53:34.959Z,9.27
2018-10-05T23:56:03.037Z,8.77
2018-10-05T23:58:31.112Z,9.33
